Archival Weather

Tokyo Intl

Tokyo, Japan (RJTT)

Report from: Saturday, April 1, 2023 9:00 PM JST
Current time: Sunday, July 14, 2024 8:42 PM JST

Current weather – Weather history – Daily summaries
Weather forecast

Temperature16.0°C (60.8°F)
Dew point11.0°C (51.8°F)
Winds 11 kts (5.7 m/s, 12.7 mph) East-Northeast (60°)
Visibility6.2 mi. (10 km)
Clouds Ceiling: Broken clouds 0 ft. (0 m)
Few clouds 3,000 ft. (914 m)
Scattered clouds 10,000 ft. (3,048 m)
Altimeter30.03 in.Hg (1017 mB)
Relative humidity72 %
Density altitude176 ft. (54 m)
Flight conditions Low Instrument Meteorological Conditions
Raw dataRJTT 011200Z 06011KT 9999 FEW030 SCT100 BKN/// 16/11 Q1017 BECMG TL1230 05008KT
An error has occurred. This application may no longer respond until reloaded. Reload 🗙